sensor_id;sensor_type;location;lat;lon;timestamp;temperature;humidity
70456;DHT22;57916;51.996;5.180;2022-08-19T00:01:56;23.90;60.80
70456;DHT22;57916;51.996;5.180;2022-08-19T00:04:30;23.90;60.70
70456;DHT22;57916;51.996;5.180;2022-08-19T00:06:58;23.80;60.60
70456;DHT22;57916;51.996;5.180;2022-08-19T00:09:26;23.80;60.40
70456;DHT22;57916;51.996;5.180;2022-08-19T00:11:54;23.80;60.50
70456;DHT22;57916;51.996;5.180;2022-08-19T00:14:24;23.80;60.70
70456;DHT22;57916;51.996;5.180;2022-08-19T00:16:51;23.80;60.90
70456;DHT22;57916;51.996;5.180;2022-08-19T00:19:22;23.80;60.80
70456;DHT22;57916;51.996;5.180;2022-08-19T00:21:50;23.70;60.90
70456;DHT22;57916;51.996;5.180;2022-08-19T00:24:17;23.70;60.80
70456;DHT22;57916;51.996;5.180;2022-08-19T00:26:44;23.60;60.70
70456;DHT22;57916;51.996;5.180;2022-08-19T00:29:14;23.60;60.90
70456;DHT22;57916;51.996;5.180;2022-08-19T00:31:42;23.60;61.00
70456;DHT22;57916;51.996;5.180;2022-08-19T00:34:10;23.60;61.10
70456;DHT22;57916;51.996;5.180;2022-08-19T00:36:39;23.60;61.00
70456;DHT22;57916;51.996;5.180;2022-08-19T00:39:06;23.60;61.00
70456;DHT22;57916;51.996;5.180;2022-08-19T00:41:33;23.60;61.10
70456;DHT22;57916;51.996;5.180;2022-08-19T00:44:09;23.60;61.20
70456;DHT22;57916;51.996;5.180;2022-08-19T00:46:41;23.60;61.20
70456;DHT22;57916;51.996;5.180;2022-08-19T00:49:31;23.50;61.20
70456;DHT22;57916;51.996;5.180;2022-08-19T00:52:21;23.50;61.40
70456;DHT22;57916;51.996;5.180;2022-08-19T00:54:49;23.50;61.70
70456;DHT22;57916;51.996;5.180;2022-08-19T00:57:24;23.50;61.20
70456;DHT22;57916;51.996;5.180;2022-08-19T00:59:54;23.50;61.20
70456;DHT22;57916;51.996;5.180;2022-08-19T01:02:29;23.50;61.00
70456;DHT22;57916;51.996;5.180;2022-08-19T01:04:57;23.50;61.40
70456;DHT22;57916;51.996;5.180;2022-08-19T01:07:24;23.50;61.60
70456;DHT22;57916;51.996;5.180;2022-08-19T01:09:51;23.40;61.50
70456;DHT22;57916;51.996;5.180;2022-08-19T01:12:18;23.40;61.40
70456;DHT22;57916;51.996;5.180;2022-08-19T01:14:46;23.40;61.40
70456;DHT22;57916;51.996;5.180;2022-08-19T01:17:15;23.40;61.70
70456;DHT22;57916;51.996;5.180;2022-08-19T01:19:43;23.40;61.60
70456;DHT22;57916;51.996;5.180;2022-08-19T01:25:13;23.30;61.20
70456;DHT22;57916;51.996;5.180;2022-08-19T01:27:45;23.30;61.00
70456;DHT22;57916;51.996;5.180;2022-08-19T01:30:22;23.30;61.10
70456;DHT22;57916;51.996;5.180;2022-08-19T01:32:52;23.30;61.40
70456;DHT22;57916;51.996;5.180;2022-08-19T01:35:20;23.30;61.80
70456;DHT22;57916;51.996;5.180;2022-08-19T01:37:50;23.30;61.80
70456;DHT22;57916;51.996;5.180;2022-08-19T01:40:20;23.20;61.60
70456;DHT22;57916;51.996;5.180;2022-08-19T01:42:49;23.20;61.60
70456;DHT22;57916;51.996;5.180;2022-08-19T01:45:18;23.20;61.50
70456;DHT22;57916;51.996;5.180;2022-08-19T01:47:45;23.20;61.80
70456;DHT22;57916;51.996;5.180;2022-08-19T01:50:32;23.10;61.60
70456;DHT22;57916;51.996;5.180;2022-08-19T01:53:01;23.20;61.80
70456;DHT22;57916;51.996;5.180;2022-08-19T01:55:35;23.10;62.00
70456;DHT22;57916;51.996;5.180;2022-08-19T01:58:12;23.10;62.20
70456;DHT22;57916;51.996;5.180;2022-08-19T02:00:42;23.10;62.30
70456;DHT22;57916;51.996;5.180;2022-08-19T02:03:09;23.10;62.20
70456;DHT22;57916;51.996;5.180;2022-08-19T02:05:39;23.00;61.80
70456;DHT22;57916;51.996;5.180;2022-08-19T02:08:07;23.10;62.00
70456;DHT22;57916;51.996;5.180;2022-08-19T02:10:39;23.10;61.90
70456;DHT22;57916;51.996;5.180;2022-08-19T02:13:06;23.00;61.80
70456;DHT22;57916;51.996;5.180;2022-08-19T02:15:33;23.00;61.60
70456;DHT22;57916;51.996;5.180;2022-08-19T02:18:00;23.00;61.70
70456;DHT22;57916;51.996;5.180;2022-08-19T02:20:27;23.00;61.70
70456;DHT22;57916;51.996;5.180;2022-08-19T02:22:54;23.00;61.40
70456;DHT22;57916;51.996;5.180;2022-08-19T02:25:21;23.00;61.60
70456;DHT22;57916;51.996;5.180;2022-08-19T02:27:48;22.90;61.90
70456;DHT22;57916;51.996;5.180;2022-08-19T02:30:17;22.90;61.90
70456;DHT22;57916;51.996;5.180;2022-08-19T02:32:45;22.90;61.90
70456;DHT22;57916;51.996;5.180;2022-08-19T02:35:14;22.80;62.10
70456;DHT22;57916;51.996;5.180;2022-08-19T02:37:42;22.80;62.20
70456;DHT22;57916;51.996;5.180;2022-08-19T02:40:29;22.80;62.20
70456;DHT22;57916;51.996;5.180;2022-08-19T02:42:58;22.80;62.20
70456;DHT22;57916;51.996;5.180;2022-08-19T02:45:25;22.80;62.20
70456;DHT22;57916;51.996;5.180;2022-08-19T02:47:52;22.80;62.20
70456;DHT22;57916;51.996;5.180;2022-08-19T02:50:19;22.80;62.20
70456;DHT22;57916;51.996;5.180;2022-08-19T02:52:46;22.70;62.20
70456;DHT22;57916;51.996;5.180;2022-08-19T02:55:13;22.70;62.40
70456;DHT22;57916;51.996;5.180;2022-08-19T02:57:40;22.70;62.30
70456;DHT22;57916;51.996;5.180;2022-08-19T03:00:09;22.70;62.50
70456;DHT22;57916;51.996;5.180;2022-08-19T03:02:39;22.60;62.60
70456;DHT22;57916;51.996;5.180;2022-08-19T03:05:08;22.60;62.70
70456;DHT22;57916;51.996;5.180;2022-08-19T03:07:36;22.60;62.70
70456;DHT22;57916;51.996;5.180;2022-08-19T03:10:04;22.60;62.50
70456;DHT22;57916;51.996;5.180;2022-08-19T03:12:35;22.60;62.40
70456;DHT22;57916;51.996;5.180;2022-08-19T03:15:07;22.60;62.60
70456;DHT22;57916;51.996;5.180;2022-08-19T03:17:35;22.60;62.70
70456;DHT22;57916;51.996;5.180;2022-08-19T03:20:03;22.60;63.00
70456;DHT22;57916;51.996;5.180;2022-08-19T03:22:30;22.50;63.20
70456;DHT22;57916;51.996;5.180;2022-08-19T03:24:58;22.60;63.20
70456;DHT22;57916;51.996;5.180;2022-08-19T03:27:25;22.50;62.90
70456;DHT22;57916;51.996;5.180;2022-08-19T03:30:00;22.50;63.30
70456;DHT22;57916;51.996;5.180;2022-08-19T03:32:26;22.50;63.40
70456;DHT22;57916;51.996;5.180;2022-08-19T03:34:59;22.50;62.90
70456;DHT22;57916;51.996;5.180;2022-08-19T03:37:26;22.50;63.10
70456;DHT22;57916;51.996;5.180;2022-08-19T03:39:53;22.50;63.00
70456;DHT22;57916;51.996;5.180;2022-08-19T03:42:20;22.50;62.70
70456;DHT22;57916;51.996;5.180;2022-08-19T03:45:07;22.50;62.70
70456;DHT22;57916;51.996;5.180;2022-08-19T03:47:34;22.40;63.00
70456;DHT22;57916;51.996;5.180;2022-08-19T03:50:01;22.40;63.30
70456;DHT22;57916;51.996;5.180;2022-08-19T03:52:28;22.40;63.60
70456;DHT22;57916;51.996;5.180;2022-08-19T03:54:55;22.30;63.70
70456;DHT22;57916;51.996;5.180;2022-08-19T03:57:22;22.30;63.90
70456;DHT22;57916;51.996;5.180;2022-08-19T03:59:58;22.30;64.10
70456;DHT22;57916;51.996;5.180;2022-08-19T04:02:41;22.30;64.30
70456;DHT22;57916;51.996;5.180;2022-08-19T04:05:25;22.30;64.50
70456;DHT22;57916;51.996;5.180;2022-08-19T04:07:55;22.30;64.30
70456;DHT22;57916;51.996;5.180;2022-08-19T04:10:25;22.30;64.10
70456;DHT22;57916;51.996;5.180;2022-08-19T04:12:52;22.30;63.80
70456;DHT22;57916;51.996;5.180;2022-08-19T04:15:19;22.30;63.60
70456;DHT22;57916;51.996;5.180;2022-08-19T04:17:47;22.30;63.20
70456;DHT22;57916;51.996;5.180;2022-08-19T04:20:14;22.30;62.90
70456;DHT22;57916;51.996;5.180;2022-08-19T04:22:41;22.30;63.10
70456;DHT22;57916;51.996;5.180;2022-08-19T04:25:08;22.20;63.70
70456;DHT22;57916;51.996;5.180;2022-08-19T04:27:35;22.20;63.70
70456;DHT22;57916;51.996;5.180;2022-08-19T04:30:03;22.20;63.60
70456;DHT22;57916;51.996;5.180;2022-08-19T04:32:30;22.20;63.40
70456;DHT22;57916;51.996;5.180;2022-08-19T04:34:58;22.20;62.90
70456;DHT22;57916;51.996;5.180;2022-08-19T04:37:43;22.20;62.70
70456;DHT22;57916;51.996;5.180;2022-08-19T04:40:10;22.20;62.60
70456;DHT22;57916;51.996;5.180;2022-08-19T04:42:55;22.20;62.80
70456;DHT22;57916;51.996;5.180;2022-08-19T04:45:23;22.20;62.70
70456;DHT22;57916;51.996;5.180;2022-08-19T04:47:53;22.20;62.40
70456;DHT22;57916;51.996;5.180;2022-08-19T04:50:43;22.20;62.40
70456;DHT22;57916;51.996;5.180;2022-08-19T04:53:10;22.20;62.30
70456;DHT22;57916;51.996;5.180;2022-08-19T04:55:41;22.10;62.80
70456;DHT22;57916;51.996;5.180;2022-08-19T04:58:09;22.10;63.30
70456;DHT22;57916;51.996;5.180;2022-08-19T05:00:38;22.10;63.40
70456;DHT22;57916;51.996;5.180;2022-08-19T05:03:06;22.10;63.40
70456;DHT22;57916;51.996;5.180;2022-08-19T05:05:37;22.10;63.30
70456;DHT22;57916;51.996;5.180;2022-08-19T05:08:12;22.00;63.70
70456;DHT22;57916;51.996;5.180;2022-08-19T05:10:41;22.00;64.10
70456;DHT22;57916;51.996;5.180;2022-08-19T05:13:08;22.00;64.30
70456;DHT22;57916;51.996;5.180;2022-08-19T05:15:36;22.00;64.80
70456;DHT22;57916;51.996;5.180;2022-08-19T05:18:03;22.00;65.20
70456;DHT22;57916;51.996;5.180;2022-08-19T05:20:48;22.00;65.20
70456;DHT22;57916;51.996;5.180;2022-08-19T05:23:34;22.00;65.00
70456;DHT22;57916;51.996;5.180;2022-08-19T05:26:01;22.10;64.70
70456;DHT22;57916;51.996;5.180;2022-08-19T05:28:27;22.10;64.60
70456;DHT22;57916;51.996;5.180;2022-08-19T05:30:57;22.10;64.30
70456;DHT22;57916;51.996;5.180;2022-08-19T05:33:23;22.10;64.40
70456;DHT22;57916;51.996;5.180;2022-08-19T05:35:51;22.20;64.60
70456;DHT22;57916;51.996;5.180;2022-08-19T05:38:18;22.20;64.70
70456;DHT22;57916;51.996;5.180;2022-08-19T05:40:45;22.20;65.10
70456;DHT22;57916;51.996;5.180;2022-08-19T05:43:15;22.20;65.10
70456;DHT22;57916;51.996;5.180;2022-08-19T05:45:43;22.30;65.20
70456;DHT22;57916;51.996;5.180;2022-08-19T05:48:11;22.30;65.20
70456;DHT22;57916;51.996;5.180;2022-08-19T05:50:40;22.40;65.50
70456;DHT22;57916;51.996;5.180;2022-08-19T05:53:07;22.40;65.60
70456;DHT22;57916;51.996;5.180;2022-08-19T05:55:35;22.50;65.80
70456;DHT22;57916;51.996;5.180;2022-08-19T05:58:04;22.60;66.10
70456;DHT22;57916;51.996;5.180;2022-08-19T06:00:35;22.70;66.40
70456;DHT22;57916;51.996;5.180;2022-08-19T06:03:03;22.80;66.40
70456;DHT22;57916;51.996;5.180;2022-08-19T06:05:38;22.90;66.20
70456;DHT22;57916;51.996;5.180;2022-08-19T06:08:17;23.00;65.80
70456;DHT22;57916;51.996;5.180;2022-08-19T06:10:45;23.10;65.70
70456;DHT22;57916;51.996;5.180;2022-08-19T06:13:11;23.10;65.50
70456;DHT22;57916;51.996;5.180;2022-08-19T06:15:38;23.20;65.40
70456;DHT22;57916;51.996;5.180;2022-08-19T06:18:05;23.20;65.50
70456;DHT22;57916;51.996;5.180;2022-08-19T06:20:32;23.20;65.20
70456;DHT22;57916;51.996;5.180;2022-08-19T06:23:19;23.30;65.10
70456;DHT22;57916;51.996;5.180;2022-08-19T06:25:50;23.20;64.90
70456;DHT22;57916;51.996;5.180;2022-08-19T06:28:16;23.30;65.50
70456;DHT22;57916;51.996;5.180;2022-08-19T06:30:44;23.30;65.10
70456;DHT22;57916;51.996;5.180;2022-08-19T06:33:11;23.40;65.00
70456;DHT22;57916;51.996;5.180;2022-08-19T06:35:39;23.50;64.80
70456;DHT22;57916;51.996;5.180;2022-08-19T06:38:06;23.50;64.40
70456;DHT22;57916;51.996;5.180;2022-08-19T06:40:33;23.50;64.70
70456;DHT22;57916;51.996;5.180;2022-08-19T06:43:02;23.50;64.60
70456;DHT22;57916;51.996;5.180;2022-08-19T06:45:32;23.60;64.70
70456;DHT22;57916;51.996;5.180;2022-08-19T06:48:02;23.60;65.10
70456;DHT22;57916;51.996;5.180;2022-08-19T06:50:29;23.60;64.80
70456;DHT22;57916;51.996;5.180;2022-08-19T06:52:55;23.60;64.60
70456;DHT22;57916;51.996;5.180;2022-08-19T06:55:27;23.60;64.40
70456;DHT22;57916;51.996;5.180;2022-08-19T06:58:02;23.60;64.50
70456;DHT22;57916;51.996;5.180;2022-08-19T07:00:30;23.60;64.60
70456;DHT22;57916;51.996;5.180;2022-08-19T07:03:02;23.70;64.70
70456;DHT22;57916;51.996;5.180;2022-08-19T07:05:42;23.70;64.60
70456;DHT22;57916;51.996;5.180;2022-08-19T07:08:12;23.70;64.50
70456;DHT22;57916;51.996;5.180;2022-08-19T07:10:43;23.60;64.70
70456;DHT22;57916;51.996;5.180;2022-08-19T07:13:10;23.70;64.60
70456;DHT22;57916;51.996;5.180;2022-08-19T07:15:38;23.80;64.40
70456;DHT22;57916;51.996;5.180;2022-08-19T07:18:05;23.80;64.10
70456;DHT22;57916;51.996;5.180;2022-08-19T07:20:37;23.90;64.10
70456;DHT22;57916;51.996;5.180;2022-08-19T07:23:07;23.90;63.80
70456;DHT22;57916;51.996;5.180;2022-08-19T07:25:37;24.00;63.60
70456;DHT22;57916;51.996;5.180;2022-08-19T07:28:06;24.20;64.20
70456;DHT22;57916;51.996;5.180;2022-08-19T07:30:50;24.40;63.10
70456;DHT22;57916;51.996;5.180;2022-08-19T07:33:18;24.70;61.90
70456;DHT22;57916;51.996;5.180;2022-08-19T07:35:45;24.80;62.10
70456;DHT22;57916;51.996;5.180;2022-08-19T07:38:12;24.80;61.30
70456;DHT22;57916;51.996;5.180;2022-08-19T07:40:41;24.90;61.00
70456;DHT22;57916;51.996;5.180;2022-08-19T07:43:09;25.10;61.70
70456;DHT22;57916;51.996;5.180;2022-08-19T07:45:42;25.40;61.40
70456;DHT22;57916;51.996;5.180;2022-08-19T07:48:09;25.80;60.00
70456;DHT22;57916;51.996;5.180;2022-08-19T07:50:37;26.20;57.70
70456;DHT22;57916;51.996;5.180;2022-08-19T07:53:03;26.30;56.90
70456;DHT22;57916;51.996;5.180;2022-08-19T07:55:30;26.40;57.10
70456;DHT22;57916;51.996;5.180;2022-08-19T07:58:06;26.40;57.10
70456;DHT22;57916;51.996;5.180;2022-08-19T08:00:34;26.40;56.70
70456;DHT22;57916;51.996;5.180;2022-08-19T08:03:02;26.40;56.40
70456;DHT22;57916;51.996;5.180;2022-08-19T08:05:28;26.30;56.40
70456;DHT22;57916;51.996;5.180;2022-08-19T08:08:14;26.30;56.90
70456;DHT22;57916;51.996;5.180;2022-08-19T08:11:00;26.20;57.00
70456;DHT22;57916;51.996;5.180;2022-08-19T08:13:27;26.20;57.20
70456;DHT22;57916;51.996;5.180;2022-08-19T08:15:55;26.20;57.50
70456;DHT22;57916;51.996;5.180;2022-08-19T08:18:25;26.20;58.10
70456;DHT22;57916;51.996;5.180;2022-08-19T08:20:56;26.20;58.00
70456;DHT22;57916;51.996;5.180;2022-08-19T08:23:24;26.20;58.40
70456;DHT22;57916;51.996;5.180;2022-08-19T08:25:56;26.10;58.00
70456;DHT22;57916;51.996;5.180;2022-08-19T08:28:24;26.10;58.30
70456;DHT22;57916;51.996;5.180;2022-08-19T08:30:56;26.10;58.70
70456;DHT22;57916;51.996;5.180;2022-08-19T08:33:25;26.30;59.40
70456;DHT22;57916;51.996;5.180;2022-08-19T08:35:59;26.60;58.10
70456;DHT22;57916;51.996;5.180;2022-08-19T08:38:25;27.00;56.90
70456;DHT22;57916;51.996;5.180;2022-08-19T08:41:02;27.40;56.40
70456;DHT22;57916;51.996;5.180;2022-08-19T08:43:35;27.90;55.30
70456;DHT22;57916;51.996;5.180;2022-08-19T08:51:52;29.40;49.90
70456;DHT22;57916;51.996;5.180;2022-08-19T08:54:37;29.60;49.00
70456;DHT22;57916;51.996;5.180;2022-08-19T08:57:12;29.60;47.30
70456;DHT22;57916;51.996;5.180;2022-08-19T08:59:42;29.70;47.90
70456;DHT22;57916;51.996;5.180;2022-08-19T09:02:09;29.90;48.90
70456;DHT22;57916;51.996;5.180;2022-08-19T09:04:37;30.20;48.00
70456;DHT22;57916;51.996;5.180;2022-08-19T09:10:04;30.40;47.00
70456;DHT22;57916;51.996;5.180;2022-08-19T09:15:36;30.30;46.40
70456;DHT22;57916;51.996;5.180;2022-08-19T09:18:05;30.10;46.80
70456;DHT22;57916;51.996;5.180;2022-08-19T09:20:33;29.90;47.30
70456;DHT22;57916;51.996;5.180;2022-08-19T09:23:00;29.70;47.90
70456;DHT22;57916;51.996;5.180;2022-08-19T09:25:27;29.50;48.60
70456;DHT22;57916;51.996;5.180;2022-08-19T09:27:55;29.20;48.90
70456;DHT22;57916;51.996;5.180;2022-08-19T09:30:36;29.00;49.60
70456;DHT22;57916;51.996;5.180;2022-08-19T09:33:06;28.80;49.80
70456;DHT22;57916;51.996;5.180;2022-08-19T09:35:34;28.60;50.70
70456;DHT22;57916;51.996;5.180;2022-08-19T09:38:20;28.50;51.10
70456;DHT22;57916;51.996;5.180;2022-08-19T09:40:47;28.30;52.30
70456;DHT22;57916;51.996;5.180;2022-08-19T09:43:16;28.10;53.10
70456;DHT22;57916;51.996;5.180;2022-08-19T09:46:00;28.10;53.60
70456;DHT22;57916;51.996;5.180;2022-08-19T09:48:27;28.10;52.80
70456;DHT22;57916;51.996;5.180;2022-08-19T09:50:54;28.10;53.00
70456;DHT22;57916;51.996;5.180;2022-08-19T09:53:21;28.00;53.10
70456;DHT22;57916;51.996;5.180;2022-08-19T09:55:51;27.80;53.40
70456;DHT22;57916;51.996;5.180;2022-08-19T09:58:18;27.80;54.50
70456;DHT22;57916;51.996;5.180;2022-08-19T10:00:52;27.80;53.80
70456;DHT22;57916;51.996;5.180;2022-08-19T10:03:20;27.70;53.90
70456;DHT22;57916;51.996;5.180;2022-08-19T10:05:52;27.70;54.40
70456;DHT22;57916;51.996;5.180;2022-08-19T10:08:27;27.60;54.70
70456;DHT22;57916;51.996;5.180;2022-08-19T10:10:55;27.60;55.00
70456;DHT22;57916;51.996;5.180;2022-08-19T10:13:28;27.50;54.90
70456;DHT22;57916;51.996;5.180;2022-08-19T10:16:02;27.50;56.40
70456;DHT22;57916;51.996;5.180;2022-08-19T10:18:29;27.70;55.90
70456;DHT22;57916;51.996;5.180;2022-08-19T10:21:09;27.90;56.20
70456;DHT22;57916;51.996;5.180;2022-08-19T10:23:39;28.30;54.40
70456;DHT22;57916;51.996;5.180;2022-08-19T10:26:07;28.60;54.40
70456;DHT22;57916;51.996;5.180;2022-08-19T10:28:35;29.00;53.50
70456;DHT22;57916;51.996;5.180;2022-08-19T10:31:11;29.30;52.30
70456;DHT22;57916;51.996;5.180;2022-08-19T10:33:39;29.60;51.30
70456;DHT22;57916;51.996;5.180;2022-08-19T10:36:21;29.80;51.30
70456;DHT22;57916;51.996;5.180;2022-08-19T10:38:51;30.00;50.60
70456;DHT22;57916;51.996;5.180;2022-08-19T10:41:33;30.20;49.50
70456;DHT22;57916;51.996;5.180;2022-08-19T10:44:04;30.10;49.70
70456;DHT22;57916;51.996;5.180;2022-08-19T10:46:33;30.10;49.00
70456;DHT22;57916;51.996;5.180;2022-08-19T10:49:04;29.90;49.10
70456;DHT22;57916;51.996;5.180;2022-08-19T10:51:32;29.80;50.20
70456;DHT22;57916;51.996;5.180;2022-08-19T10:54:18;29.70;50.90
70456;DHT22;57916;51.996;5.180;2022-08-19T10:56:57;29.70;50.00
70456;DHT22;57916;51.996;5.180;2022-08-19T10:59:27;29.60;49.90
70456;DHT22;57916;51.996;5.180;2022-08-19T11:02:03;29.60;50.90
70456;DHT22;57916;51.996;5.180;2022-08-19T11:04:30;29.60;50.20
70456;DHT22;57916;51.996;5.180;2022-08-19T11:06:59;29.70;50.10
70456;DHT22;57916;51.996;5.180;2022-08-19T11:09:26;29.80;49.10
70456;DHT22;57916;51.996;5.180;2022-08-19T11:12:00;29.70;49.10
70456;DHT22;57916;51.996;5.180;2022-08-19T11:14:31;29.60;50.60
70456;DHT22;57916;51.996;5.180;2022-08-19T11:17:00;29.70;50.10
70456;DHT22;57916;51.996;5.180;2022-08-19T11:19:27;29.80;51.60
70456;DHT22;57916;51.996;5.180;2022-08-19T11:21:54;30.00;49.80
70456;DHT22;57916;51.996;5.180;2022-08-19T11:24:25;30.20;48.80
70456;DHT22;57916;51.996;5.180;2022-08-19T11:26:58;30.30;49.10
70456;DHT22;57916;51.996;5.180;2022-08-19T11:29:26;30.50;49.50
70456;DHT22;57916;51.996;5.180;2022-08-19T11:31:54;30.70;48.60
70456;DHT22;57916;51.996;5.180;2022-08-19T11:34:23;30.90;47.50
70456;DHT22;57916;51.996;5.180;2022-08-19T11:36:53;30.90;47.10
70456;DHT22;57916;51.996;5.180;2022-08-19T11:39:26;30.90;47.50
70456;DHT22;57916;51.996;5.180;2022-08-19T11:41:54;30.80;47.60
70456;DHT22;57916;51.996;5.180;2022-08-19T11:44:21;30.70;47.40
70456;DHT22;57916;51.996;5.180;2022-08-19T11:46:47;30.70;47.50
70456;DHT22;57916;51.996;5.180;2022-08-19T11:49:16;30.60;48.00
70456;DHT22;57916;51.996;5.180;2022-08-19T11:51:46;30.50;48.90
70456;DHT22;57916;51.996;5.180;2022-08-19T11:54:15;30.50;48.10
70456;DHT22;57916;51.996;5.180;2022-08-19T11:56:43;30.50;48.00
70456;DHT22;57916;51.996;5.180;2022-08-19T11:59:12;30.40;48.10
70456;DHT22;57916;51.996;5.180;2022-08-19T12:01:40;30.20;48.60
70456;DHT22;57916;51.996;5.180;2022-08-19T12:04:10;30.00;49.10
70456;DHT22;57916;51.996;5.180;2022-08-19T12:06:39;29.90;50.40
70456;DHT22;57916;51.996;5.180;2022-08-19T12:09:07;29.80;51.00
70456;DHT22;57916;51.996;5.180;2022-08-19T12:11:39;29.70;51.30
70456;DHT22;57916;51.996;5.180;2022-08-19T12:14:08;29.70;50.90
70456;DHT22;57916;51.996;5.180;2022-08-19T12:16:41;29.60;50.20
70456;DHT22;57916;51.996;5.180;2022-08-19T12:19:14;29.70;51.80
70456;DHT22;57916;51.996;5.180;2022-08-19T12:21:48;29.70;49.80
70456;DHT22;57916;51.996;5.180;2022-08-19T12:24:15;29.60;50.60
70456;DHT22;57916;51.996;5.180;2022-08-19T12:26:42;29.70;51.20
70456;DHT22;57916;51.996;5.180;2022-08-19T12:29:20;29.90;50.60
70456;DHT22;57916;51.996;5.180;2022-08-19T12:31:50;30.10;50.00
70456;DHT22;57916;51.996;5.180;2022-08-19T12:34:17;30.20;50.00
70456;DHT22;57916;51.996;5.180;2022-08-19T12:36:46;30.30;49.30
70456;DHT22;57916;51.996;5.180;2022-08-19T12:39:15;30.40;49.30
70456;DHT22;57916;51.996;5.180;2022-08-19T12:41:42;30.40;49.10
70456;DHT22;57916;51.996;5.180;2022-08-19T12:44:21;30.40;49.70
70456;DHT22;57916;51.996;5.180;2022-08-19T12:46:56;30.50;49.70
70456;DHT22;57916;51.996;5.180;2022-08-19T12:49:23;30.40;49.30
70456;DHT22;57916;51.996;5.180;2022-08-19T12:52:11;30.50;49.10
70456;DHT22;57916;51.996;5.180;2022-08-19T12:54:42;30.50;49.30
70456;DHT22;57916;51.996;5.180;2022-08-19T12:57:12;30.50;49.60
70456;DHT22;57916;51.996;5.180;2022-08-19T12:59:39;30.50;47.90
70456;DHT22;57916;51.996;5.180;2022-08-19T13:02:08;30.40;47.50
70456;DHT22;57916;51.996;5.180;2022-08-19T13:04:35;30.30;48.10
70456;DHT22;57916;51.996;5.180;2022-08-19T13:07:04;30.20;47.70
70456;DHT22;57916;51.996;5.180;2022-08-19T13:09:40;30.10;48.40
70456;DHT22;57916;51.996;5.180;2022-08-19T13:12:09;30.10;49.50
70456;DHT22;57916;51.996;5.180;2022-08-19T13:14:40;30.00;51.40
70456;DHT22;57916;51.996;5.180;2022-08-19T13:17:07;29.90;52.60
70456;DHT22;57916;51.996;5.180;2022-08-19T13:19:36;29.90;53.00
70456;DHT22;57916;51.996;5.180;2022-08-19T13:22:03;29.80;53.50
70456;DHT22;57916;51.996;5.180;2022-08-19T13:24:40;29.60;53.10
70456;DHT22;57916;51.996;5.180;2022-08-19T13:27:13;29.50;53.30
70456;DHT22;57916;51.996;5.180;2022-08-19T13:29:41;29.30;53.60
70456;DHT22;57916;51.996;5.180;2022-08-19T13:32:28;29.10;53.70
70456;DHT22;57916;51.996;5.180;2022-08-19T13:35:16;28.80;53.90
70456;DHT22;57916;51.996;5.180;2022-08-19T13:37:44;28.60;55.10
70456;DHT22;57916;51.996;5.180;2022-08-19T13:40:17;28.40;56.00
70456;DHT22;57916;51.996;5.180;2022-08-19T13:42:48;28.30;56.60
70456;DHT22;57916;51.996;5.180;2022-08-19T13:45:18;28.20;57.00
70456;DHT22;57916;51.996;5.180;2022-08-19T13:47:47;27.90;58.20
70456;DHT22;57916;51.996;5.180;2022-08-19T13:50:18;27.80;58.70
70456;DHT22;57916;51.996;5.180;2022-08-19T13:52:46;27.60;57.90
70456;DHT22;57916;51.996;5.180;2022-08-19T13:55:15;27.40;57.70
70456;DHT22;57916;51.996;5.180;2022-08-19T13:57:52;27.20;58.80
70456;DHT22;57916;51.996;5.180;2022-08-19T14:00:21;27.00;59.80
70456;DHT22;57916;51.996;5.180;2022-08-19T14:02:51;26.90;60.00
70456;DHT22;57916;51.996;5.180;2022-08-19T14:05:20;26.80;60.50
70456;DHT22;57916;51.996;5.180;2022-08-19T14:07:47;26.80;61.00
70456;DHT22;57916;51.996;5.180;2022-08-19T14:10:16;26.70;61.50
70456;DHT22;57916;51.996;5.180;2022-08-19T14:12:43;26.70;61.90
70456;DHT22;57916;51.996;5.180;2022-08-19T14:15:11;26.60;62.00
70456;DHT22;57916;51.996;5.180;2022-08-19T14:17:39;26.60;62.20
70456;DHT22;57916;51.996;5.180;2022-08-19T14:20:09;26.60;62.50
70456;DHT22;57916;51.996;5.180;2022-08-19T14:22:44;26.60;62.70
70456;DHT22;57916;51.996;5.180;2022-08-19T14:25:16;26.60;62.70
70456;DHT22;57916;51.996;5.180;2022-08-19T14:27:43;26.60;62.20
70456;DHT22;57916;51.996;5.180;2022-08-19T14:30:14;26.70;62.70
70456;DHT22;57916;51.996;5.180;2022-08-19T14:32:41;26.70;62.70
70456;DHT22;57916;51.996;5.180;2022-08-19T14:35:11;26.70;62.80
70456;DHT22;57916;51.996;5.180;2022-08-19T14:37:39;26.80;63.30
70456;DHT22;57916;51.996;5.180;2022-08-19T14:40:13;26.90;63.30
70456;DHT22;57916;51.996;5.180;2022-08-19T14:42:41;26.90;63.70
70456;DHT22;57916;51.996;5.180;2022-08-19T14:45:10;27.00;63.10
70456;DHT22;57916;51.996;5.180;2022-08-19T14:47:37;27.10;62.60
70456;DHT22;57916;51.996;5.180;2022-08-19T14:50:09;27.20;62.20
70456;DHT22;57916;51.996;5.180;2022-08-19T14:52:47;27.30;62.20
70456;DHT22;57916;51.996;5.180;2022-08-19T14:55:16;27.30;62.80
70456;DHT22;57916;51.996;5.180;2022-08-19T14:57:44;27.30;62.40
70456;DHT22;57916;51.996;5.180;2022-08-19T15:00:12;27.40;62.90
70456;DHT22;57916;51.996;5.180;2022-08-19T15:02:41;27.40;62.60
70456;DHT22;57916;51.996;5.180;2022-08-19T15:05:08;27.50;62.30
70456;DHT22;57916;51.996;5.180;2022-08-19T15:07:36;27.50;63.10
70456;DHT22;57916;51.996;5.180;2022-08-19T15:10:05;27.60;62.90
70456;DHT22;57916;51.996;5.180;2022-08-19T15:12:37;27.60;63.90
70456;DHT22;57916;51.996;5.180;2022-08-19T15:15:11;27.70;62.90
70456;DHT22;57916;51.996;5.180;2022-08-19T15:17:42;27.80;62.60
70456;DHT22;57916;51.996;5.180;2022-08-19T15:20:18;27.80;62.00
70456;DHT22;57916;51.996;5.180;2022-08-19T15:22:45;27.80;61.90
70456;DHT22;57916;51.996;5.180;2022-08-19T15:25:16;27.80;62.20
70456;DHT22;57916;51.996;5.180;2022-08-19T15:27:43;27.90;61.80
70456;DHT22;57916;51.996;5.180;2022-08-19T15:30:11;27.80;60.90
70456;DHT22;57916;51.996;5.180;2022-08-19T15:32:38;27.80;61.50
70456;DHT22;57916;51.996;5.180;2022-08-19T15:35:06;27.80;61.00
70456;DHT22;57916;51.996;5.180;2022-08-19T15:37:34;27.80;60.50
70456;DHT22;57916;51.996;5.180;2022-08-19T15:40:05;27.80;61.30
70456;DHT22;57916;51.996;5.180;2022-08-19T15:42:36;27.80;60.90
70456;DHT22;57916;51.996;5.180;2022-08-19T15:45:05;27.80;60.60
70456;DHT22;57916;51.996;5.180;2022-08-19T15:47:32;27.80;60.90
70456;DHT22;57916;51.996;5.180;2022-08-19T15:52:51;27.80;61.40
70456;DHT22;57916;51.996;5.180;2022-08-19T15:55:26;27.80;61.60
70456;DHT22;57916;51.996;5.180;2022-08-19T15:58:17;27.90;60.50
70456;DHT22;57916;51.996;5.180;2022-08-19T16:01:05;27.90;59.40
70456;DHT22;57916;51.996;5.180;2022-08-19T16:03:54;27.90;59.70
70456;DHT22;57916;51.996;5.180;2022-08-19T16:06:48;27.90;60.00
70456;DHT22;57916;51.996;5.180;2022-08-19T16:09:17;27.90;59.60